sensor_id;sensor_type;location;lat;lon;timestamp;pressure;altitude;pressure_sealevel;temperature;humidity
16664;BME280;8445;51.270;9.434;2023-04-19T00:01:24;100464.06;;;10.59;63.67
16664;BME280;8445;51.270;9.434;2023-04-19T00:03:49;100463.13;;;10.60;63.28
16664;BME280;8445;51.270;9.434;2023-04-19T00:06:15;100460.47;;;10.60;63.52
16664;BME280;8445;51.270;9.434;2023-04-19T00:08:42;100456.69;;;10.64;63.01
16664;BME280;8445;51.270;9.434;2023-04-19T00:11:08;100457.63;;;10.63;63.06
16664;BME280;8445;51.270;9.434;2023-04-19T00:13:33;100453.47;;;10.59;63.81
16664;BME280;8445;51.270;9.434;2023-04-19T00:15:59;100462.91;;;10.63;63.36
16664;BME280;8445;51.270;9.434;2023-04-19T00:18:24;100451.50;;;10.62;63.57
16664;BME280;8445;51.270;9.434;2023-04-19T00:20:49;100456.88;;;10.61;63.51
16664;BME280;8445;51.270;9.434;2023-04-19T00:23:15;100451.78;;;10.58;63.80
16664;BME280;8445;51.270;9.434;2023-04-19T00:25:41;100446.50;;;10.58;63.59
16664;BME280;8445;51.270;9.434;2023-04-19T00:28:06;100455.19;;;10.60;63.00
16664;BME280;8445;51.270;9.434;2023-04-19T00:30:31;100451.97;;;10.55;63.46
16664;BME280;8445;51.270;9.434;2023-04-19T00:32:57;100450.44;;;10.50;63.79
16664;BME280;8445;51.270;9.434;2023-04-19T00:35:23;100454.84;;;10.50;64.00
16664;BME280;8445;51.270;9.434;2023-04-19T00:37:49;100445.97;;;10.51;63.42
16664;BME280;8445;51.270;9.434;2023-04-19T00:40:14;100445.31;;;10.47;63.61
16664;BME280;8445;51.270;9.434;2023-04-19T00:42:40;100444.44;;;10.47;63.55
16664;BME280;8445;51.270;9.434;2023-04-19T00:45:05;100442.56;;;10.49;63.17
16664;BME280;8445;51.270;9.434;2023-04-19T00:47:31;100457.78;;;10.45;63.25
16664;BME280;8445;51.270;9.434;2023-04-19T00:49:57;100448.31;;;10.41;63.38
16664;BME280;8445;51.270;9.434;2023-04-19T00:52:22;100446.50;;;10.42;63.03
16664;BME280;8445;51.270;9.434;2023-04-19T00:54:48;100443.09;;;10.40;63.23
16664;BME280;8445;51.270;9.434;2023-04-19T00:57:14;100437.13;;;10.36;63.14
16664;BME280;8445;51.270;9.434;2023-04-19T00:59:40;100430.13;;;10.35;62.84
16664;BME280;8445;51.270;9.434;2023-04-19T01:02:06;100430.31;;;10.32;62.87
16664;BME280;8445;51.270;9.434;2023-04-19T01:04:32;100430.31;;;10.32;63.19
16664;BME280;8445;51.270;9.434;2023-04-19T01:06:57;100440.22;;;10.28;63.18
16664;BME280;8445;51.270;9.434;2023-04-19T01:09:23;100434.06;;;10.28;62.88
16664;BME280;8445;51.270;9.434;2023-04-19T01:11:49;100439.53;;;10.24;62.99
16664;BME280;8445;51.270;9.434;2023-04-19T01:14:15;100440.41;;;10.25;63.12
16664;BME280;8445;51.270;9.434;2023-04-19T01:16:40;100430.84;;;10.22;62.87
16664;BME280;8445;51.270;9.434;2023-04-19T01:19:06;100429.13;;;10.21;62.62
16664;BME280;8445;51.270;9.434;2023-04-19T01:21:31;100432.72;;;10.20;62.48
16664;BME280;8445;51.270;9.434;2023-04-19T01:23:57;100437.25;;;10.18;62.66
16664;BME280;8445;51.270;9.434;2023-04-19T01:26:23;100430.16;;;10.19;62.72
16664;BME280;8445;51.270;9.434;2023-04-19T01:28:48;100424.38;;;10.12;62.87
16664;BME280;8445;51.270;9.434;2023-04-19T01:31:15;100418.91;;;10.15;62.35
16664;BME280;8445;51.270;9.434;2023-04-19T01:33:40;100411.91;;;10.14;62.46
16664;BME280;8445;51.270;9.434;2023-04-19T01:36:07;100420.97;;;10.10;62.46
16664;BME280;8445;51.270;9.434;2023-04-19T01:38:33;100418.66;;;10.04;62.30
16664;BME280;8445;51.270;9.434;2023-04-19T01:41:00;100414.13;;;10.06;62.53
16664;BME280;8445;51.270;9.434;2023-04-19T01:43:25;100416.94;;;10.03;62.13
16664;BME280;8445;51.270;9.434;2023-04-19T01:45:51;100422.53;;;9.98;62.21
16664;BME280;8445;51.270;9.434;2023-04-19T01:48:18;100415.53;;;9.97;62.39
16664;BME280;8445;51.270;9.434;2023-04-19T01:50:43;100416.41;;;9.98;62.42
16664;BME280;8445;51.270;9.434;2023-04-19T01:53:09;100416.56;;;9.94;61.95
16664;BME280;8445;51.270;9.434;2023-04-19T01:55:35;100423.56;;;9.96;62.17
16664;BME280;8445;51.270;9.434;2023-04-19T01:58:00;100418.34;;;9.94;61.85
16664;BME280;8445;51.270;9.434;2023-04-19T02:00:27;100423.63;;;9.94;61.96
16664;BME280;8445;51.270;9.434;2023-04-19T02:02:52;100419.56;;;9.88;61.73
16664;BME280;8445;51.270;9.434;2023-04-19T02:05:17;100421.31;;;9.88;61.48
16664;BME280;8445;51.270;9.434;2023-04-19T02:07:43;100410.84;;;9.86;61.47
16664;BME280;8445;51.270;9.434;2023-04-19T02:10:09;100410.09;;;9.84;61.61
16664;BME280;8445;51.270;9.434;2023-04-19T02:12:36;100406.84;;;9.79;61.40
16664;BME280;8445;51.270;9.434;2023-04-19T02:15:02;100398.00;;;9.80;61.31
16664;BME280;8445;51.270;9.434;2023-04-19T02:17:33;100402.50;;;9.78;61.32
16664;BME280;8445;51.270;9.434;2023-04-19T02:19:59;100399.88;;;9.78;61.03
16664;BME280;8445;51.270;9.434;2023-04-19T02:22:25;100387.41;;;9.80;60.99
16664;BME280;8445;51.270;9.434;2023-04-19T02:24:53;100383.16;;;9.77;61.11
16664;BME280;8445;51.270;9.434;2023-04-19T02:27:25;100384.94;;;9.77;60.99
16664;BME280;8445;51.270;9.434;2023-04-19T02:29:52;100384.19;;;9.75;61.09
16664;BME280;8445;51.270;9.434;2023-04-19T02:32:18;100395.25;;;9.66;61.38
16664;BME280;8445;51.270;9.434;2023-04-19T02:34:43;100390.91;;;9.64;61.31
16664;BME280;8445;51.270;9.434;2023-04-19T02:37:09;100395.38;;;9.64;61.09
16664;BME280;8445;51.270;9.434;2023-04-19T02:39:34;100391.84;;;9.63;60.93
16664;BME280;8445;51.270;9.434;2023-04-19T02:41:59;100389.97;;;9.66;60.67
16664;BME280;8445;51.270;9.434;2023-04-19T02:44:25;100399.00;;;9.61;61.11
16664;BME280;8445;51.270;9.434;2023-04-19T02:46:52;100392.97;;;9.59;61.10
16664;BME280;8445;51.270;9.434;2023-04-19T02:49:18;100398.25;;;9.59;60.97
16664;BME280;8445;51.270;9.434;2023-04-19T02:51:44;100395.69;;;9.58;61.28
16664;BME280;8445;51.270;9.434;2023-04-19T02:54:12;100393.06;;;9.58;60.90
16664;BME280;8445;51.270;9.434;2023-04-19T02:56:39;100390.50;;;9.56;60.96
16664;BME280;8445;51.270;9.434;2023-04-19T02:59:04;100398.69;;;9.52;61.19
16664;BME280;8445;51.270;9.434;2023-04-19T03:01:31;100391.00;;;9.47;61.35
16664;BME280;8445;51.270;9.434;2023-04-19T03:03:57;100392.88;;;9.45;61.26
16664;BME280;8445;51.270;9.434;2023-04-19T03:06:23;100386.81;;;9.43;61.08
16664;BME280;8445;51.270;9.434;2023-04-19T03:08:49;100380.97;;;9.38;61.17
16664;BME280;8445;51.270;9.434;2023-04-19T03:11:17;100370.56;;;9.34;61.18
16664;BME280;8445;51.270;9.434;2023-04-19T03:13:42;100385.97;;;9.26;61.48
16664;BME280;8445;51.270;9.434;2023-04-19T03:16:08;100381.63;;;9.25;61.25
16664;BME280;8445;51.270;9.434;2023-04-19T03:18:35;100388.78;;;9.23;61.14
16664;BME280;8445;51.270;9.434;2023-04-19T03:21:02;100395.22;;;9.17;61.37
16664;BME280;8445;51.270;9.434;2023-04-19T03:23:43;100396.31;;;9.13;61.42
16664;BME280;8445;51.270;9.434;2023-04-19T03:26:09;100384.31;;;9.08;60.89
16664;BME280;8445;51.270;9.434;2023-04-19T03:28:39;100378.59;;;8.99;61.19
16664;BME280;8445;51.270;9.434;2023-04-19T03:31:24;100399.09;;;8.94;61.30
16664;BME280;8445;51.270;9.434;2023-04-19T03:33:51;100387.69;;;8.94;61.04
16664;BME280;8445;51.270;9.434;2023-04-19T03:36:20;100389.78;;;8.87;61.15
16664;BME280;8445;51.270;9.434;2023-04-19T03:38:46;100377.38;;;8.89;60.99
16664;BME280;8445;51.270;9.434;2023-04-19T03:41:23;100373.97;;;8.87;61.00
16664;BME280;8445;51.270;9.434;2023-04-19T03:43:59;100377.09;;;8.78;60.96
16664;BME280;8445;51.270;9.434;2023-04-19T03:46:24;100369.41;;;8.73;61.29
16664;BME280;8445;51.270;9.434;2023-04-19T03:48:50;100378.34;;;8.70;60.94
16664;BME280;8445;51.270;9.434;2023-04-19T03:51:18;100375.00;;;8.67;61.37
16664;BME280;8445;51.270;9.434;2023-04-19T03:53:43;100379.66;;;8.62;61.48
16664;BME280;8445;51.270;9.434;2023-04-19T03:56:11;100391.41;;;8.56;61.24
16664;BME280;8445;51.270;9.434;2023-04-19T03:58:36;100384.66;;;8.50;61.27
16664;BME280;8445;51.270;9.434;2023-04-19T04:01:05;100396.19;;;8.48;61.33
16664;BME280;8445;51.270;9.434;2023-04-19T04:03:33;100385.72;;;8.46;60.95
16664;BME280;8445;51.270;9.434;2023-04-19T04:06:01;100386.88;;;8.40;61.00
16664;BME280;8445;51.270;9.434;2023-04-19T04:08:27;100389.03;;;8.32;61.16
16664;BME280;8445;51.270;9.434;2023-04-19T04:10:53;100389.19;;;8.29;60.89
16664;BME280;8445;51.270;9.434;2023-04-19T04:13:19;100390.47;;;8.22;61.07
16664;BME280;8445;51.270;9.434;2023-04-19T04:15:49;100403.00;;;8.16;60.89
16664;BME280;8445;51.270;9.434;2023-04-19T04:18:18;100398.97;;;8.09;61.10
16664;BME280;8445;51.270;9.434;2023-04-19T04:20:44;100404.28;;;8.08;60.86
16664;BME280;8445;51.270;9.434;2023-04-19T04:23:10;100398.34;;;8.04;60.71
16664;BME280;8445;51.270;9.434;2023-04-19T04:25:40;100399.31;;;8.01;60.85
16664;BME280;8445;51.270;9.434;2023-04-19T04:28:10;100402.78;;;7.84;60.74
16664;BME280;8445;51.270;9.434;2023-04-19T04:30:40;100409.84;;;7.84;60.49
16664;BME280;8445;51.270;9.434;2023-04-19T04:33:08;100418.72;;;7.81;60.41
16664;BME280;8445;51.270;9.434;2023-04-19T04:35:37;100395.94;;;7.80;60.52
16664;BME280;8445;51.270;9.434;2023-04-19T04:38:10;100404.88;;;7.78;60.26
16664;BME280;8445;51.270;9.434;2023-04-19T04:40:37;100407.94;;;7.68;60.47
16664;BME280;8445;51.270;9.434;2023-04-19T04:43:02;100408.78;;;7.69;60.52
16664;BME280;8445;51.270;9.434;2023-04-19T04:45:30;100415.16;;;7.65;60.42
16664;BME280;8445;51.270;9.434;2023-04-19T04:47:59;100414.38;;;7.63;60.45
16664;BME280;8445;51.270;9.434;2023-04-19T04:50:25;100410.94;;;7.61;60.10
16664;BME280;8445;51.270;9.434;2023-04-19T04:52:51;100417.19;;;7.58;60.40
16664;BME280;8445;51.270;9.434;2023-04-19T04:55:25;100425.31;;;7.53;59.87
16664;BME280;8445;51.270;9.434;2023-04-19T04:57:51;100427.88;;;7.55;60.25
16664;BME280;8445;51.270;9.434;2023-04-19T05:00:24;100424.53;;;7.51;60.00
16664;BME280;8445;51.270;9.434;2023-04-19T05:02:58;100423.63;;;7.52;59.83
16664;BME280;8445;51.270;9.434;2023-04-19T05:05:24;100416.63;;;7.51;59.94
16664;BME280;8445;51.270;9.434;2023-04-19T05:07:49;100427.16;;;7.51;59.80
16664;BME280;8445;51.270;9.434;2023-04-19T05:10:15;100423.91;;;7.46;59.89
16664;BME280;8445;51.270;9.434;2023-04-19T05:12:43;100419.56;;;7.45;59.64
16664;BME280;8445;51.270;9.434;2023-04-19T05:15:09;100421.19;;;7.48;59.69
16664;BME280;8445;51.270;9.434;2023-04-19T05:17:37;100421.19;;;7.48;59.90
16664;BME280;8445;51.270;9.434;2023-04-19T05:20:02;100424.59;;;7.50;59.97
16664;BME280;8445;51.270;9.434;2023-04-19T05:22:30;100423.81;;;7.48;59.97
16664;BME280;8445;51.270;9.434;2023-04-19T05:24:56;100427.31;;;7.48;59.53
16664;BME280;8445;51.270;9.434;2023-04-19T05:27:22;100429.94;;;7.48;59.87
16664;BME280;8445;51.270;9.434;2023-04-19T05:29:47;100436.78;;;7.52;59.47
16664;BME280;8445;51.270;9.434;2023-04-19T05:32:15;100436.00;;;7.50;59.72
16664;BME280;8445;51.270;9.434;2023-04-19T05:34:46;100437.97;;;7.45;59.63
16664;BME280;8445;51.270;9.434;2023-04-19T05:37:13;100431.00;;;7.44;59.81
16664;BME280;8445;51.270;9.434;2023-04-19T05:39:40;100438.13;;;7.42;59.71
16664;BME280;8445;51.270;9.434;2023-04-19T05:42:05;100450.91;;;7.31;59.06
16664;BME280;8445;51.270;9.434;2023-04-19T05:44:31;100427.78;;;7.37;59.43
16664;BME280;8445;51.270;9.434;2023-04-19T05:46:57;100416.41;;;7.37;59.29
16664;BME280;8445;51.270;9.434;2023-04-19T05:49:51;100416.19;;;7.41;59.54
16664;BME280;8445;51.270;9.434;2023-04-19T05:52:46;100408.94;;;7.47;59.37
16664;BME280;8445;51.270;9.434;2023-04-19T05:55:12;100407.81;;;7.52;59.30
16664;BME280;8445;51.270;9.434;2023-04-19T05:57:41;100405.88;;;7.56;59.48
16664;BME280;8445;51.270;9.434;2023-04-19T06:00:07;100410.16;;;7.59;59.43
16664;BME280;8445;51.270;9.434;2023-04-19T06:02:41;100410.81;;;7.64;59.76
16664;BME280;8445;51.270;9.434;2023-04-19T06:05:11;100398.38;;;7.66;59.40
16664;BME280;8445;51.270;9.434;2023-04-19T06:07:37;100408.78;;;7.69;59.13
16664;BME280;8445;51.270;9.434;2023-04-19T06:10:03;100407.56;;;7.76;58.95
16664;BME280;8445;51.270;9.434;2023-04-19T06:12:29;100404.94;;;7.76;58.64
16664;BME280;8445;51.270;9.434;2023-04-19T06:14:55;100413.75;;;7.75;58.91
16664;BME280;8445;51.270;9.434;2023-04-19T06:17:21;100408.06;;;7.84;58.69
16664;BME280;8445;51.270;9.434;2023-04-19T06:19:50;100416.28;;;7.96;58.93
16664;BME280;8445;51.270;9.434;2023-04-19T06:22:15;100415.84;;;8.05;58.72
16664;BME280;8445;51.270;9.434;2023-04-19T06:24:43;100415.56;;;8.11;58.48
16664;BME280;8445;51.270;9.434;2023-04-19T06:27:09;100426.50;;;8.21;58.34
16664;BME280;8445;51.270;9.434;2023-04-19T06:29:40;100419.50;;;8.20;58.15
16664;BME280;8445;51.270;9.434;2023-04-19T06:32:09;100415.88;;;8.23;58.00
16664;BME280;8445;51.270;9.434;2023-04-19T06:34:34;100411.06;;;8.13;57.63
16664;BME280;8445;51.270;9.434;2023-04-19T06:37:02;100421.91;;;8.25;57.33
16664;BME280;8445;51.270;9.434;2023-04-19T06:39:30;100429.06;;;8.40;57.38
16664;BME280;8445;51.270;9.434;2023-04-19T06:41:55;100421.72;;;8.47;56.88
16664;BME280;8445;51.270;9.434;2023-04-19T06:44:21;100422.13;;;8.57;56.52
16664;BME280;8445;51.270;9.434;2023-04-19T06:46:46;100427.63;;;8.70;56.56
16664;BME280;8445;51.270;9.434;2023-04-19T06:49:12;100422.63;;;8.81;56.77
16664;BME280;8445;51.270;9.434;2023-04-19T06:51:38;100430.31;;;8.86;56.42
16664;BME280;8445;51.270;9.434;2023-04-19T06:54:04;100423.25;;;8.86;55.99
16664;BME280;8445;51.270;9.434;2023-04-19T06:56:47;100428.22;;;8.93;54.61
16664;BME280;8445;51.270;9.434;2023-04-19T06:59:14;100415.31;;;9.04;56.46
16664;BME280;8445;51.270;9.434;2023-04-19T07:01:41;100417.13;;;9.19;56.16
16664;BME280;8445;51.270;9.434;2023-04-19T07:04:07;100426.56;;;9.08;55.49
16664;BME280;8445;51.270;9.434;2023-04-19T07:06:35;100432.44;;;9.13;55.75
16664;BME280;8445;51.270;9.434;2023-04-19T07:09:02;100435.69;;;9.18;54.90
16664;BME280;8445;51.270;9.434;2023-04-19T07:11:29;100432.56;;;9.27;55.42
16664;BME280;8445;51.270;9.434;2023-04-19T07:13:54;100416.22;;;9.37;54.87
16664;BME280;8445;51.270;9.434;2023-04-19T07:16:20;100418.69;;;9.40;55.69
16664;BME280;8445;51.270;9.434;2023-04-19T07:18:46;100415.47;;;9.51;55.13
16664;BME280;8445;51.270;9.434;2023-04-19T07:21:12;100420.66;;;9.52;54.72
16664;BME280;8445;51.270;9.434;2023-04-19T07:23:38;100409.16;;;9.53;55.00
16664;BME280;8445;51.270;9.434;2023-04-19T07:26:04;100424.00;;;9.56;54.77
16664;BME280;8445;51.270;9.434;2023-04-19T07:28:30;100410.09;;;9.52;54.55
16664;BME280;8445;51.270;9.434;2023-04-19T07:30:56;100409.47;;;9.47;53.98
16664;BME280;8445;51.270;9.434;2023-04-19T07:33:22;100400.88;;;9.43;54.09
16664;BME280;8445;51.270;9.434;2023-04-19T07:35:51;100418.94;;;9.51;53.62
16664;BME280;8445;51.270;9.434;2023-04-19T07:38:16;100406.84;;;9.47;53.72
16664;BME280;8445;51.270;9.434;2023-04-19T07:40:42;100412.13;;;9.47;53.29
16664;BME280;8445;51.270;9.434;2023-04-19T07:43:07;100403.78;;;9.39;53.62
16664;BME280;8445;51.270;9.434;2023-04-19T07:45:34;100393.91;;;9.42;52.90
16664;BME280;8445;51.270;9.434;2023-04-19T07:48:00;100397.75;;;9.37;52.89
16664;BME280;8445;51.270;9.434;2023-04-19T07:50:25;100397.97;;;9.32;52.49
16664;BME280;8445;51.270;9.434;2023-04-19T07:52:54;100400.22;;;9.40;53.13
16664;BME280;8445;51.270;9.434;2023-04-19T07:55:21;100403.44;;;9.45;52.33
16664;BME280;8445;51.270;9.434;2023-04-19T07:57:46;100401.00;;;9.42;52.24
16664;BME280;8445;51.270;9.434;2023-04-19T08:00:15;100395.44;;;9.30;51.60
16664;BME280;8445;51.270;9.434;2023-04-19T08:02:45;100394.34;;;9.34;51.91
16664;BME280;8445;51.270;9.434;2023-04-19T08:05:11;100405.13;;;9.46;52.07
16664;BME280;8445;51.270;9.434;2023-04-19T08:07:41;100398.75;;;9.50;52.52
16664;BME280;8445;51.270;9.434;2023-04-19T08:10:08;100386.13;;;9.55;51.14
16664;BME280;8445;51.270;9.434;2023-04-19T08:12:38;100393.91;;;9.58;51.96
16664;BME280;8445;51.270;9.434;2023-04-19T08:15:08;100387.69;;;9.59;50.95
16664;BME280;8445;51.270;9.434;2023-04-19T08:17:35;100380.44;;;9.47;50.87
16664;BME280;8445;51.270;9.434;2023-04-19T08:20:03;100384.00;;;9.46;50.95
16664;BME280;8445;51.270;9.434;2023-04-19T08:22:32;100379.75;;;9.59;51.67
16664;BME280;8445;51.270;9.434;2023-04-19T08:24:58;100391.44;;;9.55;50.72
16664;BME280;8445;51.270;9.434;2023-04-19T08:27:25;100391.53;;;9.54;51.26
16664;BME280;8445;51.270;9.434;2023-04-19T08:29:52;100391.34;;;9.57;51.31
16664;BME280;8445;51.270;9.434;2023-04-19T08:32:17;100388.63;;;9.58;50.80
16664;BME280;8445;51.270;9.434;2023-04-19T08:34:43;100394.06;;;9.55;50.70
16664;BME280;8445;51.270;9.434;2023-04-19T08:37:08;100392.19;;;9.57;50.53
16664;BME280;8445;51.270;9.434;2023-04-19T08:39:36;100383.66;;;9.52;50.13
16664;BME280;8445;51.270;9.434;2023-04-19T08:42:06;100385.03;;;9.59;50.50
16664;BME280;8445;51.270;9.434;2023-04-19T08:44:33;100384.72;;;9.49;49.75
16664;BME280;8445;51.270;9.434;2023-04-19T08:46:59;100378.72;;;9.46;50.76
16664;BME280;8445;51.270;9.434;2023-04-19T08:49:28;100386.81;;;9.43;50.29
16664;BME280;8445;51.270;9.434;2023-04-19T08:51:56;100370.41;;;9.38;50.60
16664;BME280;8445;51.270;9.434;2023-04-19T08:54:22;100370.56;;;9.34;50.58
16664;BME280;8445;51.270;9.434;2023-04-19T08:56:52;100373.28;;;9.33;49.93
16664;BME280;8445;51.270;9.434;2023-04-19T08:59:21;100369.03;;;9.30;49.99
16664;BME280;8445;51.270;9.434;2023-04-19T09:01:46;100366.22;;;9.33;49.94
16664;BME280;8445;51.270;9.434;2023-04-19T09:04:12;100365.63;;;9.44;50.00
16664;BME280;8445;51.270;9.434;2023-04-19T09:06:38;100368.75;;;9.51;49.83
16664;BME280;8445;51.270;9.434;2023-04-19T09:09:18;100367.22;;;9.47;49.12
16664;BME280;8445;51.270;9.434;2023-04-19T09:11:45;100361.00;;;9.48;50.18
16664;BME280;8445;51.270;9.434;2023-04-19T09:14:13;100367.00;;;9.52;49.45
16664;BME280;8445;51.270;9.434;2023-04-19T09:16:39;100345.75;;;9.53;49.69
16664;BME280;8445;51.270;9.434;2023-04-19T09:19:06;100346.88;;;9.49;49.16
16664;BME280;8445;51.270;9.434;2023-04-19T09:21:34;100346.19;;;9.61;49.78
16664;BME280;8445;51.270;9.434;2023-04-19T09:24:00;100348.47;;;9.68;49.30
16664;BME280;8445;51.270;9.434;2023-04-19T09:26:26;100339.19;;;9.60;49.18
16664;BME280;8445;51.270;9.434;2023-04-19T09:29:05;100334.78;;;9.61;48.72
16664;BME280;8445;51.270;9.434;2023-04-19T09:31:35;100340.06;;;9.61;48.15
16664;BME280;8445;51.270;9.434;2023-04-19T09:34:14;100335.25;;;9.68;47.68
16664;BME280;8445;51.270;9.434;2023-04-19T09:36:40;100331.00;;;9.81;48.32
16664;BME280;8445;51.270;9.434;2023-04-19T09:39:06;100325.53;;;9.84;48.50
16664;BME280;8445;51.270;9.434;2023-04-19T09:41:32;100328.94;;;9.86;48.48
16664;BME280;8445;51.270;9.434;2023-04-19T09:44:10;100333.88;;;9.92;45.82
16664;BME280;8445;51.270;9.434;2023-04-19T09:46:37;100325.19;;;10.05;48.57
16664;BME280;8445;51.270;9.434;2023-04-19T09:49:20;100325.59;;;10.13;46.76
16664;BME280;8445;51.270;9.434;2023-04-19T09:51:50;100328.66;;;10.21;47.74
16664;BME280;8445;51.270;9.434;2023-04-19T09:54:18;100322.78;;;10.16;46.34
16664;BME280;8445;51.270;9.434;2023-04-19T09:56:44;100323.19;;;10.24;47.17
16664;BME280;8445;51.270;9.434;2023-04-19T09:59:11;100318.19;;;10.34;47.81
16664;BME280;8445;51.270;9.434;2023-04-19T10:01:42;100317.16;;;10.37;47.37
16664;BME280;8445;51.270;9.434;2023-04-19T10:04:09;100315.19;;;10.41;46.81
16664;BME280;8445;51.270;9.434;2023-04-19T10:06:38;100314.75;;;10.48;47.76
16664;BME280;8445;51.270;9.434;2023-04-19T10:09:04;100316.44;;;10.64;47.65
16664;BME280;8445;51.270;9.434;2023-04-19T10:11:34;100304.16;;;10.63;46.71
16664;BME280;8445;51.270;9.434;2023-04-19T10:14:10;100296.03;;;10.66;47.53
16664;BME280;8445;51.270;9.434;2023-04-19T10:16:38;100319.47;;;10.72;47.02
16664;BME280;8445;51.270;9.434;2023-04-19T10:19:11;100303.78;;;10.69;45.60
16664;BME280;8445;51.270;9.434;2023-04-19T10:21:40;100311.06;;;10.65;44.45
16664;BME280;8445;51.270;9.434;2023-04-19T10:24:08;100301.25;;;10.67;45.65
16664;BME280;8445;51.270;9.434;2023-04-19T10:32:19;100280.16;;;10.95;46.19
16664;BME280;8445;51.270;9.434;2023-04-19T10:34:44;100276.34;;;10.99;45.49
16664;BME280;8445;51.270;9.434;2023-04-19T10:37:12;100265.78;;;10.99;45.08
16664;BME280;8445;51.270;9.434;2023-04-19T10:39:39;100270.94;;;11.01;44.63
16664;BME280;8445;51.270;9.434;2023-04-19T10:42:05;100257.31;;;11.07;45.52
16664;BME280;8445;51.270;9.434;2023-04-19T10:44:31;100256.75;;;11.16;45.53
16664;BME280;8445;51.270;9.434;2023-04-19T10:46:57;100249.34;;;11.21;44.69
16664;BME280;8445;51.270;9.434;2023-04-19T10:49:23;100276.19;;;11.30;44.67
16664;BME280;8445;51.270;9.434;2023-04-19T10:51:51;100242.16;;;11.23;42.73
16664;BME280;8445;51.270;9.434;2023-04-19T10:54:31;100238.75;;;11.21;40.21
16664;BME280;8445;51.270;9.434;2023-04-19T10:57:06;100226.06;;;11.26;43.20
16664;BME280;8445;51.270;9.434;2023-04-19T10:59:41;100254.69;;;11.34;43.28
16664;BME280;8445;51.270;9.434;2023-04-19T11:02:31;100229.69;;;11.38;40.96
16664;BME280;8445;51.270;9.434;2023-04-19T11:05:01;100214.66;;;11.39;42.22
16664;BME280;8445;51.270;9.434;2023-04-19T11:07:39;100216.66;;;11.35;41.57
16664;BME280;8445;51.270;9.434;2023-04-19T11:10:08;100224.81;;;11.32;41.03
16664;BME280;8445;51.270;9.434;2023-04-19T11:12:34;100218.34;;;11.36;42.74
16664;BME280;8445;51.270;9.434;2023-04-19T11:14:59;100198.38;;;11.45;43.02
16664;BME280;8445;51.270;9.434;2023-04-19T11:17:28;100211.94;;;11.53;42.66
16664;BME280;8445;51.270;9.434;2023-04-19T11:22:39;100199.88;;;11.62;40.99
16664;BME280;8445;51.270;9.434;2023-04-19T11:25:09;100206.47;;;11.69;42.31
16664;BME280;8445;51.270;9.434;2023-04-19T11:27:35;100218.56;;;11.74;42.19
16664;BME280;8445;51.270;9.434;2023-04-19T11:30:07;100208.81;;;11.74;41.69
16664;BME280;8445;51.270;9.434;2023-04-19T11:32:33;100197.44;;;11.72;42.70
16664;BME280;8445;51.270;9.434;2023-04-19T11:35:06;100187.38;;;11.77;42.09
16664;BME280;8445;51.270;9.434;2023-04-19T11:37:33;100202.41;;;11.64;41.57
16664;BME280;8445;51.270;9.434;2023-04-19T11:39:59;100214.69;;;11.52;40.97
16664;BME280;8445;51.270;9.434;2023-04-19T11:42:24;100193.50;;;11.65;41.95
16664;BME280;8445;51.270;9.434;2023-04-19T11:44:53;100186.75;;;11.74;41.37
16664;BME280;8445;51.270;9.434;2023-04-19T11:47:22;100191.63;;;11.80;41.30
16664;BME280;8445;51.270;9.434;2023-04-19T11:49:52;100175.84;;;11.91;42.40
16664;BME280;8445;51.270;9.434;2023-04-19T11:52:21;100184.84;;;11.89;40.86
16664;BME280;8445;51.270;9.434;2023-04-19T11:54:51;100184.94;;;11.87;40.68
16664;BME280;8445;51.270;9.434;2023-04-19T11:57:29;100172.13;;;11.94;40.78
16664;BME280;8445;51.270;9.434;2023-04-19T12:00:05;100166.84;;;11.94;38.73
16664;BME280;8445;51.270;9.434;2023-04-19T12:02:42;100209.13;;;11.95;40.79
16664;BME280;8445;51.270;9.434;2023-04-19T12:05:09;100176.94;;;12.01;41.46
16664;BME280;8445;51.270;9.434;2023-04-19T12:07:35;100180.53;;;12.00;40.38
16664;BME280;8445;51.270;9.434;2023-04-19T12:10:10;100156.03;;;12.10;41.80
16664;BME280;8445;51.270;9.434;2023-04-19T12:12:37;100154.13;;;12.12;41.23
16664;BME280;8445;51.270;9.434;2023-04-19T12:15:04;100163.88;;;12.24;40.56
16664;BME280;8445;51.270;9.434;2023-04-19T12:17:30;100148.06;;;12.36;41.41
16664;BME280;8445;51.270;9.434;2023-04-19T12:19:55;100164.72;;;12.25;38.78
16664;BME280;8445;51.270;9.434;2023-04-19T12:22:20;100166.00;;;12.19;40.27
16664;BME280;8445;51.270;9.434;2023-04-19T12:24:51;100150.09;;;12.19;39.48
16664;BME280;8445;51.270;9.434;2023-04-19T12:27:20;100151.13;;;12.16;39.03
16664;BME280;8445;51.270;9.434;2023-04-19T12:29:45;100155.59;;;12.16;38.16
16664;BME280;8445;51.270;9.434;2023-04-19T12:32:13;100139.03;;;12.25;39.51
16664;BME280;8445;51.270;9.434;2023-04-19T12:34:39;100144.97;;;12.29;38.12
16664;BME280;8445;51.270;9.434;2023-04-19T12:37:07;100132.78;;;12.26;37.20
16664;BME280;8445;51.270;9.434;2023-04-19T12:39:32;100124.81;;;12.26;38.43
16664;BME280;8445;51.270;9.434;2023-04-19T12:41:58;100122.38;;;12.23;37.13
16664;BME280;8445;51.270;9.434;2023-04-19T12:44:39;100106.78;;;12.32;38.73
16664;BME280;8445;51.270;9.434;2023-04-19T12:47:05;100123.44;;;12.34;37.61
16664;BME280;8445;51.270;9.434;2023-04-19T12:49:30;100128.50;;;12.37;37.37
16664;BME280;8445;51.270;9.434;2023-04-19T12:51:56;100121.34;;;12.50;38.39
16664;BME280;8445;51.270;9.434;2023-04-19T12:54:21;100153.41;;;12.47;34.64
16664;BME280;8445;51.270;9.434;2023-04-19T12:56:49;100116.91;;;12.51;36.28
16664;BME280;8445;51.270;9.434;2023-04-19T12:59:17;100129.91;;;12.67;35.85
16664;BME280;8445;51.270;9.434;2023-04-19T13:01:42;100118.31;;;12.68;36.29
16664;BME280;8445;51.270;9.434;2023-04-19T13:04:08;100112.34;;;12.77;36.23
16664;BME280;8445;51.270;9.434;2023-04-19T13:06:36;100122.53;;;12.83;36.39
16664;BME280;8445;51.270;9.434;2023-04-19T13:09:01;100104.66;;;12.85;36.94
16664;BME280;8445;51.270;9.434;2023-04-19T13:11:28;100106.13;;;12.89;36.85
16664;BME280;8445;51.270;9.434;2023-04-19T13:13:53;100106.00;;;12.91;36.24
16664;BME280;8445;51.270;9.434;2023-04-19T13:16:19;100097.66;;;12.84;36.22
16664;BME280;8445;51.270;9.434;2023-04-19T13:18:45;100109.53;;;12.92;35.53